sensor_id;sensor_type;location;lat;lon;timestamp;noise_LAeq;noise_LA_min;noise_LA_max;noise_LA01;noise_LA95
72160;Laerm;60045;51.792;10.938;2023-07-09T00:01:37;34.05;30.08;47.41;;
72160;Laerm;60045;51.792;10.938;2023-07-09T00:04:03;33.03;30.37;41.78;;
72160;Laerm;60045;51.792;10.938;2023-07-09T00:06:29;33.13;30.39;40.68;;
72160;Laerm;60045;51.792;10.938;2023-07-09T00:08:54;32.95;29.86;44.58;;
72160;Laerm;60045;51.792;10.938;2023-07-09T00:11:20;52.11;30.68;65.54;;
72160;Laerm;60045;51.792;10.938;2023-07-09T00:13:46;33.59;28.83;44.68;;
72160;Laerm;60045;51.792;10.938;2023-07-09T00:16:13;30.54;28.76;41.11;;
72160;Laerm;60045;51.792;10.938;2023-07-09T00:18:39;30.78;28.83;39.18;;
72160;Laerm;60045;51.792;10.938;2023-07-09T00:21:05;31.55;28.93;43.49;;
72160;Laerm;60045;51.792;10.938;2023-07-09T00:23:31;50.24;29.06;66.81;;
72160;Laerm;60045;51.792;10.938;2023-07-09T00:25:56;52.65;29.82;70.62;;
72160;Laerm;60045;51.792;10.938;2023-07-09T00:28:22;32.51;29.58;40.20;;
72160;Laerm;60045;51.792;10.938;2023-07-09T00:30:49;32.51;29.88;42.76;;
72160;Laerm;60045;51.792;10.938;2023-07-09T00:33:15;32.82;29.48;44.87;;
72160;Laerm;60045;51.792;10.938;2023-07-09T00:35:43;32.95;29.48;46.48;;
72160;Laerm;60045;51.792;10.938;2023-07-09T00:38:20;31.71;29.18;44.76;;
72160;Laerm;60045;51.792;10.938;2023-07-09T00:40:47;49.13;29.45;65.47;;
72160;Laerm;60045;51.792;10.938;2023-07-09T00:43:15;50.71;30.14;66.11;;
72160;Laerm;60045;51.792;10.938;2023-07-09T00:45:41;32.13;29.30;47.31;;
72160;Laerm;60045;51.792;10.938;2023-07-09T00:48:09;31.66;29.28;42.45;;
72160;Laerm;60045;51.792;10.938;2023-07-09T00:50:50;31.65;28.87;41.70;;
72160;Laerm;60045;51.792;10.938;2023-07-09T00:53:19;31.39;28.76;40.47;;
72160;Laerm;60045;51.792;10.938;2023-07-09T00:55:49;33.25;28.91;53.32;;
72160;Laerm;60045;51.792;10.938;2023-07-09T00:58:16;31.35;29.02;44.31;;
72160;Laerm;60045;51.792;10.938;2023-07-09T01:00:44;32.25;28.99;46.18;;
72160;Laerm;60045;51.792;10.938;2023-07-09T01:03:15;32.62;28.96;47.22;;
72160;Laerm;60045;51.792;10.938;2023-07-09T01:05:44;32.92;28.85;44.44;;
72160;Laerm;60045;51.792;10.938;2023-07-09T01:08:10;34.03;29.17;43.92;;
72160;Laerm;60045;51.792;10.938;2023-07-09T01:10:37;32.99;29.20;48.32;;
72160;Laerm;60045;51.792;10.938;2023-07-09T01:13:05;33.08;29.45;47.26;;
72160;Laerm;60045;51.792;10.938;2023-07-09T01:15:33;31.53;29.40;40.10;;
72160;Laerm;60045;51.792;10.938;2023-07-09T01:17:59;31.41;30.01;39.87;;
72160;Laerm;60045;51.792;10.938;2023-07-09T01:20:26;31.30;29.64;39.38;;
72160;Laerm;60045;51.792;10.938;2023-07-09T01:22:52;31.16;29.40;36.29;;
72160;Laerm;60045;51.792;10.938;2023-07-09T01:25:20;32.76;30.30;48.50;;
72160;Laerm;60045;51.792;10.938;2023-07-09T01:27:46;31.49;29.80;45.22;;
72160;Laerm;60045;51.792;10.938;2023-07-09T01:32:39;31.66;29.91;39.19;;
72160;Laerm;60045;51.792;10.938;2023-07-09T01:35:10;31.31;29.03;41.55;;
72160;Laerm;60045;51.792;10.938;2023-07-09T01:37:37;30.98;29.05;41.70;;
72160;Laerm;60045;51.792;10.938;2023-07-09T01:40:03;30.88;28.93;42.40;;
72160;Laerm;60045;51.792;10.938;2023-07-09T01:42:34;30.75;29.24;39.01;;
72160;Laerm;60045;51.792;10.938;2023-07-09T01:45:00;32.02;29.33;40.99;;
72160;Laerm;60045;51.792;10.938;2023-07-09T01:47:29;31.82;29.52;45.37;;
72160;Laerm;60045;51.792;10.938;2023-07-09T01:49:54;48.55;30.29;64.99;;
72160;Laerm;60045;51.792;10.938;2023-07-09T01:52:25;51.19;28.65;67.42;;
72160;Laerm;60045;51.792;10.938;2023-07-09T01:54:52;31.54;28.70;40.18;;
72160;Laerm;60045;51.792;10.938;2023-07-09T01:57:21;30.64;28.52;37.38;;
72160;Laerm;60045;51.792;10.938;2023-07-09T01:59:48;30.84;28.60;40.30;;
72160;Laerm;60045;51.792;10.938;2023-07-09T02:02:14;30.75;28.55;44.02;;
72160;Laerm;60045;51.792;10.938;2023-07-09T02:04:46;31.00;28.74;41.83;;
72160;Laerm;60045;51.792;10.938;2023-07-09T02:07:12;31.92;29.15;45.02;;
72160;Laerm;60045;51.792;10.938;2023-07-09T02:09:38;47.89;30.60;64.82;;
72160;Laerm;60045;51.792;10.938;2023-07-09T02:12:04;51.76;30.02;68.42;;
72160;Laerm;60045;51.792;10.938;2023-07-09T02:14:29;38.12;29.14;49.59;;
72160;Laerm;60045;51.792;10.938;2023-07-09T02:16:55;38.56;30.48;48.20;;
72160;Laerm;60045;51.792;10.938;2023-07-09T02:19:21;49.73;31.15;67.36;;
72160;Laerm;60045;51.792;10.938;2023-07-09T02:21:46;48.15;34.08;66.39;;
72160;Laerm;60045;51.792;10.938;2023-07-09T02:24:12;44.60;32.67;61.63;;
72160;Laerm;60045;51.792;10.938;2023-07-09T02:26:38;49.30;31.63;64.77;;
72160;Laerm;60045;51.792;10.938;2023-07-09T02:29:03;49.65;34.47;61.68;;
72160;Laerm;60045;51.792;10.938;2023-07-09T02:31:30;50.09;33.67;62.91;;
72160;Laerm;60045;51.792;10.938;2023-07-09T02:33:56;54.61;33.81;69.34;;
72160;Laerm;60045;51.792;10.938;2023-07-09T02:36:23;50.45;34.48;61.37;;
72160;Laerm;60045;51.792;10.938;2023-07-09T02:38:49;49.30;34.39;63.70;;
72160;Laerm;60045;51.792;10.938;2023-07-09T02:41:15;40.70;32.26;48.49;;
72160;Laerm;60045;51.792;10.938;2023-07-09T02:43:41;42.30;32.57;56.57;;
72160;Laerm;60045;51.792;10.938;2023-07-09T02:46:07;43.02;32.89;57.09;;
72160;Laerm;60045;51.792;10.938;2023-07-09T02:48:33;42.95;33.41;56.90;;
72160;Laerm;60045;51.792;10.938;2023-07-09T02:50:58;42.29;32.98;55.86;;
72160;Laerm;60045;51.792;10.938;2023-07-09T02:53:24;42.24;32.75;54.18;;
72160;Laerm;60045;51.792;10.938;2023-07-09T02:55:50;40.98;30.86;56.64;;
72160;Laerm;60045;51.792;10.938;2023-07-09T02:58:16;40.17;31.13;54.53;;
72160;Laerm;60045;51.792;10.938;2023-07-09T03:00:42;40.08;29.81;59.12;;
72160;Laerm;60045;51.792;10.938;2023-07-09T03:03:07;38.56;30.45;47.98;;
72160;Laerm;60045;51.792;10.938;2023-07-09T03:05:33;38.65;31.67;45.86;;
72160;Laerm;60045;51.792;10.938;2023-07-09T03:07:59;53.36;31.15;70.38;;
72160;Laerm;60045;51.792;10.938;2023-07-09T03:10:25;51.43;31.57;67.33;;
72160;Laerm;60045;51.792;10.938;2023-07-09T03:12:50;53.76;30.61;70.56;;
72160;Laerm;60045;51.792;10.938;2023-07-09T03:15:16;38.04;30.26;47.01;;
72160;Laerm;60045;51.792;10.938;2023-07-09T03:17:42;53.36;30.52;69.76;;
72160;Laerm;60045;51.792;10.938;2023-07-09T03:20:08;52.79;30.93;71.21;;
72160;Laerm;60045;51.792;10.938;2023-07-09T03:22:33;57.45;31.88;74.09;;
72160;Laerm;60045;51.792;10.938;2023-07-09T03:24:59;51.79;34.93;70.42;;
72160;Laerm;60045;51.792;10.938;2023-07-09T03:27:25;58.63;33.60;73.15;;
72160;Laerm;60045;51.792;10.938;2023-07-09T03:29:51;38.68;31.81;54.53;;
72160;Laerm;60045;51.792;10.938;2023-07-09T03:32:16;53.60;31.90;71.68;;
72160;Laerm;60045;51.792;10.938;2023-07-09T03:34:42;40.60;31.37;55.87;;
72160;Laerm;60045;51.792;10.938;2023-07-09T03:37:08;39.42;31.52;53.28;;
72160;Laerm;60045;51.792;10.938;2023-07-09T03:39:33;53.09;30.26;69.43;;
72160;Laerm;60045;51.792;10.938;2023-07-09T03:41:59;37.34;30.32;48.56;;
72160;Laerm;60045;51.792;10.938;2023-07-09T03:44:25;38.93;30.57;50.33;;
72160;Laerm;60045;51.792;10.938;2023-07-09T03:46:50;51.45;30.52;67.78;;
72160;Laerm;60045;51.792;10.938;2023-07-09T03:49:16;57.25;31.92;75.99;;
72160;Laerm;60045;51.792;10.938;2023-07-09T03:51:42;52.25;31.46;68.23;;
72160;Laerm;60045;51.792;10.938;2023-07-09T03:54:08;51.86;31.45;68.21;;
72160;Laerm;60045;51.792;10.938;2023-07-09T03:56:33;53.61;31.61;67.23;;
72160;Laerm;60045;51.792;10.938;2023-07-09T03:58:59;37.55;31.27;46.53;;
72160;Laerm;60045;51.792;10.938;2023-07-09T04:01:25;36.93;30.16;46.95;;
72160;Laerm;60045;51.792;10.938;2023-07-09T04:03:51;52.14;30.72;69.38;;
72160;Laerm;60045;51.792;10.938;2023-07-09T04:06:16;54.86;32.19;68.48;;
72160;Laerm;60045;51.792;10.938;2023-07-09T04:08:42;38.64;30.57;51.53;;
72160;Laerm;60045;51.792;10.938;2023-07-09T04:11:08;39.34;32.01;50.56;;
72160;Laerm;60045;51.792;10.938;2023-07-09T04:13:34;52.46;30.39;69.54;;
72160;Laerm;60045;51.792;10.938;2023-07-09T04:16:00;54.98;31.06;73.54;;
72160;Laerm;60045;51.792;10.938;2023-07-09T04:18:26;38.55;30.28;54.45;;
72160;Laerm;60045;51.792;10.938;2023-07-09T04:20:52;55.85;32.08;73.28;;
72160;Laerm;60045;51.792;10.938;2023-07-09T04:23:18;39.32;30.30;49.91;;
72160;Laerm;60045;51.792;10.938;2023-07-09T04:25:43;51.98;30.92;68.87;;
72160;Laerm;60045;51.792;10.938;2023-07-09T04:28:09;37.49;29.95;45.77;;
72160;Laerm;60045;51.792;10.938;2023-07-09T04:30:35;38.71;30.02;53.59;;
72160;Laerm;60045;51.792;10.938;2023-07-09T04:33:00;38.11;31.12;48.37;;
72160;Laerm;60045;51.792;10.938;2023-07-09T04:35:26;50.84;30.77;67.80;;
72160;Laerm;60045;51.792;10.938;2023-07-09T04:37:52;56.66;32.37;73.18;;
72160;Laerm;60045;51.792;10.938;2023-07-09T04:40:18;53.53;32.46;71.39;;
72160;Laerm;60045;51.792;10.938;2023-07-09T04:42:44;52.16;32.49;67.46;;
72160;Laerm;60045;51.792;10.938;2023-07-09T04:45:10;40.92;31.12;54.32;;
72160;Laerm;60045;51.792;10.938;2023-07-09T04:47:37;55.42;32.17;69.04;;
72160;Laerm;60045;51.792;10.938;2023-07-09T04:50:03;55.90;31.70;73.55;;
72160;Laerm;60045;51.792;10.938;2023-07-09T04:52:29;53.49;30.68;70.70;;
72160;Laerm;60045;51.792;10.938;2023-07-09T04:54:55;38.66;30.10;50.84;;
72160;Laerm;60045;51.792;10.938;2023-07-09T04:57:21;37.07;30.05;48.11;;
72160;Laerm;60045;51.792;10.938;2023-07-09T04:59:47;52.24;30.38;69.84;;
72160;Laerm;60045;51.792;10.938;2023-07-09T05:02:14;35.92;30.60;42.90;;
72160;Laerm;60045;51.792;10.938;2023-07-09T05:04:39;39.90;30.60;49.00;;
72160;Laerm;60045;51.792;10.938;2023-07-09T05:07:05;52.26;30.24;71.05;;
72160;Laerm;60045;51.792;10.938;2023-07-09T05:09:32;53.62;29.69;70.30;;
72160;Laerm;60045;51.792;10.938;2023-07-09T05:11:57;48.36;30.51;63.23;;
72160;Laerm;60045;51.792;10.938;2023-07-09T05:14:23;40.46;30.66;53.02;;
72160;Laerm;60045;51.792;10.938;2023-07-09T05:16:49;37.97;30.71;50.53;;
72160;Laerm;60045;51.792;10.938;2023-07-09T05:19:15;52.02;29.55;67.94;;
72160;Laerm;60045;51.792;10.938;2023-07-09T05:21:40;58.55;30.44;76.51;;
72160;Laerm;60045;51.792;10.938;2023-07-09T05:24:06;39.12;29.82;48.37;;
72160;Laerm;60045;51.792;10.938;2023-07-09T05:26:32;51.91;30.04;67.85;;
72160;Laerm;60045;51.792;10.938;2023-07-09T05:28:57;52.46;29.57;70.58;;
72160;Laerm;60045;51.792;10.938;2023-07-09T05:31:24;37.25;29.57;51.53;;
72160;Laerm;60045;51.792;10.938;2023-07-09T05:33:49;35.79;30.07;45.17;;
72160;Laerm;60045;51.792;10.938;2023-07-09T05:36:15;39.84;30.07;49.73;;
72160;Laerm;60045;51.792;10.938;2023-07-09T05:38:44;54.84;31.17;73.23;;
72160;Laerm;60045;51.792;10.938;2023-07-09T05:41:12;49.89;30.92;65.85;;
72160;Laerm;60045;51.792;10.938;2023-07-09T05:43:37;50.17;30.17;66.03;;
72160;Laerm;60045;51.792;10.938;2023-07-09T05:46:04;54.22;29.93;68.59;;
72160;Laerm;60045;51.792;10.938;2023-07-09T05:48:30;40.08;30.76;52.10;;
72160;Laerm;60045;51.792;10.938;2023-07-09T05:50:56;36.74;30.18;50.62;;
72160;Laerm;60045;51.792;10.938;2023-07-09T05:53:22;55.01;30.37;73.17;;
72160;Laerm;60045;51.792;10.938;2023-07-09T05:55:47;39.35;30.26;48.94;;
72160;Laerm;60045;51.792;10.938;2023-07-09T05:58:13;50.23;30.18;66.34;;
72160;Laerm;60045;51.792;10.938;2023-07-09T06:00:39;58.30;31.49;73.63;;
72160;Laerm;60045;51.792;10.938;2023-07-09T06:03:06;40.58;30.24;55.25;;
72160;Laerm;60045;51.792;10.938;2023-07-09T06:05:35;59.39;29.55;74.72;;
72160;Laerm;60045;51.792;10.938;2023-07-09T06:08:01;57.84;29.13;75.54;;
72160;Laerm;60045;51.792;10.938;2023-07-09T06:10:27;54.31;29.70;74.18;;
72160;Laerm;60045;51.792;10.938;2023-07-09T06:12:52;41.76;29.41;59.20;;
72160;Laerm;60045;51.792;10.938;2023-07-09T06:15:18;56.13;29.71;73.31;;
72160;Laerm;60045;51.792;10.938;2023-07-09T06:17:44;40.77;30.65;49.08;;
72160;Laerm;60045;51.792;10.938;2023-07-09T06:20:10;66.23;34.04;86.21;;
72160;Laerm;60045;51.792;10.938;2023-07-09T06:22:36;57.12;33.96;74.89;;
72160;Laerm;60045;51.792;10.938;2023-07-09T06:25:01;58.00;31.47;71.16;;
72160;Laerm;60045;51.792;10.938;2023-07-09T06:27:27;38.85;29.99;46.85;;
72160;Laerm;60045;51.792;10.938;2023-07-09T06:29:53;56.33;31.64;67.92;;
72160;Laerm;60045;51.792;10.938;2023-07-09T06:32:19;37.39;29.35;45.18;;
72160;Laerm;60045;51.792;10.938;2023-07-09T06:34:44;57.60;31.87;71.49;;
72160;Laerm;60045;51.792;10.938;2023-07-09T06:37:10;56.44;30.80;71.96;;
72160;Laerm;60045;51.792;10.938;2023-07-09T06:39:36;54.95;29.11;68.19;;
72160;Laerm;60045;51.792;10.938;2023-07-09T06:42:02;49.55;29.84;65.68;;
72160;Laerm;60045;51.792;10.938;2023-07-09T06:44:27;56.21;30.88;69.69;;
72160;Laerm;60045;51.792;10.938;2023-07-09T06:46:53;55.01;29.83;69.96;;
72160;Laerm;60045;51.792;10.938;2023-07-09T06:49:19;54.37;30.18;70.37;;
72160;Laerm;60045;51.792;10.938;2023-07-09T06:51:44;52.07;30.49;69.70;;
72160;Laerm;60045;51.792;10.938;2023-07-09T06:54:11;55.44;29.93;71.48;;
72160;Laerm;60045;51.792;10.938;2023-07-09T06:56:38;55.89;29.74;71.00;;
72160;Laerm;60045;51.792;10.938;2023-07-09T06:59:03;56.01;33.71;69.79;;
72160;Laerm;60045;51.792;10.938;2023-07-09T07:01:29;54.98;29.49;68.53;;
72160;Laerm;60045;51.792;10.938;2023-07-09T07:03:55;56.36;29.32;71.08;;
72160;Laerm;60045;51.792;10.938;2023-07-09T07:06:21;59.78;33.44;72.03;;
72160;Laerm;60045;51.792;10.938;2023-07-09T07:08:46;52.39;31.02;66.66;;
72160;Laerm;60045;51.792;10.938;2023-07-09T07:11:12;56.22;29.92;74.08;;
72160;Laerm;60045;51.792;10.938;2023-07-09T07:13:38;56.69;29.95;72.77;;
72160;Laerm;60045;51.792;10.938;2023-07-09T07:16:05;58.65;32.64;72.90;;
72160;Laerm;60045;51.792;10.938;2023-07-09T07:18:32;58.74;33.34;75.49;;
72160;Laerm;60045;51.792;10.938;2023-07-09T07:20:58;60.09;31.15;74.77;;
72160;Laerm;60045;51.792;10.938;2023-07-09T07:23:23;57.94;30.56;71.16;;
72160;Laerm;60045;51.792;10.938;2023-07-09T07:25:49;49.10;31.11;64.72;;
72160;Laerm;60045;51.792;10.938;2023-07-09T07:28:15;59.90;34.55;75.08;;
72160;Laerm;60045;51.792;10.938;2023-07-09T07:30:41;57.38;31.75;73.73;;
72160;Laerm;60045;51.792;10.938;2023-07-09T07:33:07;57.16;32.90;69.94;;
72160;Laerm;60045;51.792;10.938;2023-07-09T07:35:32;56.62;30.04;71.98;;
72160;Laerm;60045;51.792;10.938;2023-07-09T07:37:58;60.12;34.11;70.59;;
72160;Laerm;60045;51.792;10.938;2023-07-09T07:40:24;59.75;31.53;79.08;;
72160;Laerm;60045;51.792;10.938;2023-07-09T07:42:50;57.92;33.26;71.64;;
72160;Laerm;60045;51.792;10.938;2023-07-09T07:45:15;65.40;34.80;86.31;;
72160;Laerm;60045;51.792;10.938;2023-07-09T07:47:41;59.08;33.08;75.30;;
72160;Laerm;60045;51.792;10.938;2023-07-09T07:50:07;58.53;33.27;72.27;;
72160;Laerm;60045;51.792;10.938;2023-07-09T07:52:33;63.30;35.38;79.75;;
72160;Laerm;60045;51.792;10.938;2023-07-09T07:55:02;56.16;33.28;69.34;;
72160;Laerm;60045;51.792;10.938;2023-07-09T07:57:28;59.15;34.93;70.58;;
72160;Laerm;60045;51.792;10.938;2023-07-09T07:59:53;64.82;35.43;79.53;;
72160;Laerm;60045;51.792;10.938;2023-07-09T08:02:20;60.56;34.01;73.62;;
72160;Laerm;60045;51.792;10.938;2023-07-09T08:04:45;58.00;34.75;69.92;;
72160;Laerm;60045;51.792;10.938;2023-07-09T08:07:11;56.34;33.83;69.77;;
72160;Laerm;60045;51.792;10.938;2023-07-09T08:09:37;56.48;35.20;69.85;;
72160;Laerm;60045;51.792;10.938;2023-07-09T08:12:04;68.54;39.94;83.65;;
72160;Laerm;60045;51.792;10.938;2023-07-09T08:14:35;54.89;32.30;68.65;;
72160;Laerm;60045;51.792;10.938;2023-07-09T08:17:01;59.67;31.94;75.02;;
72160;Laerm;60045;51.792;10.938;2023-07-09T08:19:26;58.40;31.78;72.56;;
72160;Laerm;60045;51.792;10.938;2023-07-09T08:21:52;56.92;31.47;70.18;;
72160;Laerm;60045;51.792;10.938;2023-07-09T08:24:18;62.70;34.38;77.23;;
72160;Laerm;60045;51.792;10.938;2023-07-09T08:26:44;56.39;33.39;70.46;;
72160;Laerm;60045;51.792;10.938;2023-07-09T08:29:09;58.23;33.82;71.18;;
72160;Laerm;60045;51.792;10.938;2023-07-09T08:31:35;61.19;33.57;74.83;;
72160;Laerm;60045;51.792;10.938;2023-07-09T08:34:01;56.66;35.47;70.30;;
72160;Laerm;60045;51.792;10.938;2023-07-09T08:36:27;60.55;33.11;71.58;;
72160;Laerm;60045;51.792;10.938;2023-07-09T08:38:52;58.19;34.25;71.64;;
72160;Laerm;60045;51.792;10.938;2023-07-09T08:41:21;60.10;35.98;76.29;;
72160;Laerm;60045;51.792;10.938;2023-07-09T08:43:54;57.18;34.13;69.90;;
72160;Laerm;60045;51.792;10.938;2023-07-09T08:48:55;59.04;34.29;74.44;;
72160;Laerm;60045;51.792;10.938;2023-07-09T08:51:26;61.16;36.44;73.88;;
72160;Laerm;60045;51.792;10.938;2023-07-09T08:53:54;61.64;36.06;74.59;;
72160;Laerm;60045;51.792;10.938;2023-07-09T08:56:22;60.47;36.63;71.90;;
72160;Laerm;60045;51.792;10.938;2023-07-09T08:58:49;59.92;35.12;71.98;;
72160;Laerm;60045;51.792;10.938;2023-07-09T09:01:20;62.39;34.07;78.35;;
72160;Laerm;60045;51.792;10.938;2023-07-09T09:03:48;63.56;35.36;75.68;;
72160;Laerm;60045;51.792;10.938;2023-07-09T09:06:24;62.14;34.61;79.10;;
72160;Laerm;60045;51.792;10.938;2023-07-09T09:11:54;48.96;32.21;66.05;;
72160;Laerm;60045;51.792;10.938;2023-07-09T09:16:50;61.21;34.78;79.68;;
72160;Laerm;60045;51.792;10.938;2023-07-09T09:19:27;58.94;35.45;70.29;;
72160;Laerm;60045;51.792;10.938;2023-07-09T09:21:57;59.05;36.33;72.17;;
72160;Laerm;60045;51.792;10.938;2023-07-09T09:24:31;61.45;35.84;73.53;;
72160;Laerm;60045;51.792;10.938;2023-07-09T09:27:01;60.63;33.42;72.71;;
72160;Laerm;60045;51.792;10.938;2023-07-09T09:29:26;63.49;41.29;75.51;;
72160;Laerm;60045;51.792;10.938;2023-07-09T09:31:55;61.58;35.10;79.80;;
72160;Laerm;60045;51.792;10.938;2023-07-09T09:34:22;62.55;36.82;73.21;;
72160;Laerm;60045;51.792;10.938;2023-07-09T09:36:48;59.94;36.33;73.30;;
72160;Laerm;60045;51.792;10.938;2023-07-09T09:39:14;61.99;33.87;74.92;;
72160;Laerm;60045;51.792;10.938;2023-07-09T09:41:40;61.82;36.78;75.61;;
72160;Laerm;60045;51.792;10.938;2023-07-09T09:44:16;65.40;37.65;82.37;;
72160;Laerm;60045;51.792;10.938;2023-07-09T09:46:42;62.00;36.96;78.33;;
72160;Laerm;60045;51.792;10.938;2023-07-09T09:49:08;65.18;35.83;82.87;;
72160;Laerm;60045;51.792;10.938;2023-07-09T09:51:35;60.91;35.15;75.27;;
72160;Laerm;60045;51.792;10.938;2023-07-09T09:54:02;62.14;35.06;73.04;;
72160;Laerm;60045;51.792;10.938;2023-07-09T09:56:33;67.10;40.18;81.36;;
72160;Laerm;60045;51.792;10.938;2023-07-09T09:58:59;64.81;36.54;82.92;;
72160;Laerm;60045;51.792;10.938;2023-07-09T10:01:29;60.26;36.84;71.73;;
72160;Laerm;60045;51.792;10.938;2023-07-09T10:03:56;60.23;31.16;74.69;;
72160;Laerm;60045;51.792;10.938;2023-07-09T10:06:29;60.31;33.24;73.03;;
72160;Laerm;60045;51.792;10.938;2023-07-09T10:09:05;57.96;32.32;72.66;;
72160;Laerm;60045;51.792;10.938;2023-07-09T10:11:39;59.51;32.88;74.38;;
72160;Laerm;60045;51.792;10.938;2023-07-09T10:14:15;62.08;33.21;81.52;;
72160;Laerm;60045;51.792;10.938;2023-07-09T10:16:45;59.78;36.54;71.47;;
72160;Laerm;60045;51.792;10.938;2023-07-09T10:19:14;58.79;31.42;72.85;;
72160;Laerm;60045;51.792;10.938;2023-07-09T10:21:54;59.88;34.86;72.17;;
72160;Laerm;60045;51.792;10.938;2023-07-09T10:27:23;65.91;36.47;85.76;;
72160;Laerm;60045;51.792;10.938;2023-07-09T10:34:59;60.99;34.33;75.38;;
72160;Laerm;60045;51.792;10.938;2023-07-09T10:40:12;68.93;35.59;96.22;;
72160;Laerm;60045;51.792;10.938;2023-07-09T10:42:43;61.13;30.67;80.13;;
72160;Laerm;60045;51.792;10.938;2023-07-09T10:45:13;52.39;30.15;70.59;;
72160;Laerm;60045;51.792;10.938;2023-07-09T10:47:43;76.67;33.37;102.22;;
72160;Laerm;60045;51.792;10.938;2023-07-09T10:50:12;78.42;35.74;99.24;;
72160;Laerm;60045;51.792;10.938;2023-07-09T10:52:41;61.12;36.81;73.98;;
72160;Laerm;60045;51.792;10.938;2023-07-09T10:57:40;68.28;34.33;85.49;;
72160;Laerm;60045;51.792;10.938;2023-07-09T11:00:11;64.69;38.63;80.00;;
72160;Laerm;60045;51.792;10.938;2023-07-09T11:02:41;57.67;34.92;70.55;;
72160;Laerm;60045;51.792;10.938;2023-07-09T11:05:08;57.15;33.67;71.33;;
72160;Laerm;60045;51.792;10.938;2023-07-09T11:07:35;64.99;33.83;78.90;;
72160;Laerm;60045;51.792;10.938;2023-07-09T11:10:04;73.09;42.06;93.34;;
72160;Laerm;60045;51.792;10.938;2023-07-09T11:12:36;60.57;35.58;74.67;;
72160;Laerm;60045;51.792;10.938;2023-07-09T11:15:05;72.94;36.03;91.32;;
72160;Laerm;60045;51.792;10.938;2023-07-09T11:17:33;58.81;34.63;70.73;;
72160;Laerm;60045;51.792;10.938;2023-07-09T11:20:06;73.48;40.24;94.95;;
72160;Laerm;60045;51.792;10.938;2023-07-09T11:22:38;62.00;35.31;80.59;;
72160;Laerm;60045;51.792;10.938;2023-07-09T11:27:32;68.26;40.04;81.58;;
72160;Laerm;60045;51.792;10.938;2023-07-09T11:30:02;59.18;35.00;70.47;;
72160;Laerm;60045;51.792;10.938;2023-07-09T11:32:31;56.71;33.37;68.54;;
72160;Laerm;60045;51.792;10.938;2023-07-09T11:35:06;61.75;35.96;75.37;;
72160;Laerm;60045;51.792;10.938;2023-07-09T11:37:32;62.96;40.23;76.01;;
72160;Laerm;60045;51.792;10.938;2023-07-09T11:40:13;57.24;35.43;69.49;;
72160;Laerm;60045;51.792;10.938;2023-07-09T11:42:47;59.32;38.16;71.45;;
72160;Laerm;60045;51.792;10.938;2023-07-09T11:45:14;58.74;34.30;73.12;;
72160;Laerm;60045;51.792;10.938;2023-07-09T11:50:20;62.51;39.87;78.58;;
72160;Laerm;60045;51.792;10.938;2023-07-09T11:55:41;70.25;36.12;88.54;;
72160;Laerm;60045;51.792;10.938;2023-07-09T11:58:08;58.59;37.56;71.01;;
72160;Laerm;60045;51.792;10.938;2023-07-09T12:00:39;57.93;36.43;70.15;;
72160;Laerm;60045;51.792;10.938;2023-07-09T12:03:06;60.30;31.92;70.66;;
72160;Laerm;60045;51.792;10.938;2023-07-09T12:05:33;62.02;33.58;80.85;;
72160;Laerm;60045;51.792;10.938;2023-07-09T12:07:58;59.53;31.73;72.01;;
72160;Laerm;60045;51.792;10.938;2023-07-09T12:10:26;55.93;35.63;69.65;;
72160;Laerm;60045;51.792;10.938;2023-07-09T12:12:56;61.20;34.50;74.78;;
72160;Laerm;60045;51.792;10.938;2023-07-09T12:15:27;63.45;38.85;78.01;;
72160;Laerm;60045;51.792;10.938;2023-07-09T12:17:55;56.93;34.31;68.96;;
72160;Laerm;60045;51.792;10.938;2023-07-09T12:20:21;60.68;34.64;76.90;;
72160;Laerm;60045;51.792;10.938;2023-07-09T12:22:47;60.36;34.32;76.14;;
72160;Laerm;60045;51.792;10.938;2023-07-09T12:25:20;58.15;34.86;69.25;;
72160;Laerm;60045;51.792;10.938;2023-07-09T12:27:47;62.99;37.04;76.49;;
72160;Laerm;60045;51.792;10.938;2023-07-09T12:30:12;58.24;33.20;73.27;;
72160;Laerm;60045;51.792;10.938;2023-07-09T12:32:45;61.56;32.70;77.77;;
72160;Laerm;60045;51.792;10.938;2023-07-09T12:35:12;57.70;35.90;71.83;;
72160;Laerm;60045;51.792;10.938;2023-07-09T12:37:39;59.89;33.33;73.93;;
72160;Laerm;60045;51.792;10.938;2023-07-09T12:40:04;60.85;35.20;71.31;;
72160;Laerm;60045;51.792;10.938;2023-07-09T12:42:37;55.35;31.40;69.76;;
72160;Laerm;60045;51.792;10.938;2023-07-09T12:45:03;56.95;33.48;70.58;;
72160;Laerm;60045;51.792;10.938;2023-07-09T12:47:30;60.17;36.19;70.74;;
72160;Laerm;60045;51.792;10.938;2023-07-09T12:50:07;62.40;35.66;77.58;;
72160;Laerm;60045;51.792;10.938;2023-07-09T12:52:45;60.89;33.92;75.39;;
72160;Laerm;60045;51.792;10.938;2023-07-09T12:55:21;60.95;34.56;72.37;;
72160;Laerm;60045;51.792;10.938;2023-07-09T12:57:47;61.20;33.97;78.84;;
72160;Laerm;60045;51.792;10.938;2023-07-09T13:00:16;59.72;33.55;70.63;;
72160;Laerm;60045;51.792;10.938;2023-07-09T13:02:43;56.97;32.43;71.93;;
72160;Laerm;60045;51.792;10.938;2023-07-09T13:05:19;59.21;35.45;71.82;;
72160;Laerm;60045;51.792;10.938;2023-07-09T13:07:51;60.49;36.30;71.71;;
72160;Laerm;60045;51.792;10.938;2023-07-09T13:10:19;60.50;36.56;70.63;;
72160;Laerm;60045;51.792;10.938;2023-07-09T13:12:49;54.09;31.45;71.76;;
72160;Laerm;60045;51.792;10.938;2023-07-09T13:15:58;57.66;34.95;73.31;;
72160;Laerm;60045;51.792;10.938;2023-07-09T13:18:05;54.26;31.17;68.51;;
72160;Laerm;60045;51.792;10.938;2023-07-09T13:20:32;57.33;32.08;70.55;;
72160;Laerm;60045;51.792;10.938;2023-07-09T13:22:58;58.94;34.72;71.87;;
72160;Laerm;60045;51.792;10.938;2023-07-09T13:25:24;59.62;35.20;71.51;;
72160;Laerm;60045;51.792;10.938;2023-07-09T13:27:50;61.10;35.91;72.39;;
72160;Laerm;60045;51.792;10.938;2023-07-09T13:30:16;59.34;36.05;72.35;;
72160;Laerm;60045;51.792;10.938;2023-07-09T13:32:43;55.05;30.29;69.00;;
72160;Laerm;60045;51.792;10.938;2023-07-09T13:35:12;57.17;34.69;69.91;;
72160;Laerm;60045;51.792;10.938;2023-07-09T13:37:38;63.15;34.95;75.10;;
72160;Laerm;60045;51.792;10.938;2023-07-09T13:40:04;61.32;30.55;76.85;;
72160;Laerm;60045;51.792;10.938;2023-07-09T13:42:30;56.48;33.37;69.74;;
72160;Laerm;60045;51.792;10.938;2023-07-09T13:44:56;58.73;32.01;72.86;;
72160;Laerm;60045;51.792;10.938;2023-07-09T13:47:21;56.27;34.00;70.70;;
72160;Laerm;60045;51.792;10.938;2023-07-09T13:49:47;57.50;35.36;71.11;;
72160;Laerm;60045;51.792;10.938;2023-07-09T13:52:15;59.26;34.50;70.99;;
72160;Laerm;60045;51.792;10.938;2023-07-09T13:54:41;56.86;32.43;72.93;;
72160;Laerm;60045;51.792;10.938;2023-07-09T13:57:09;55.14;31.65;69.88;;
72160;Laerm;60045;51.792;10.938;2023-07-09T13:59:37;57.79;32.99;71.23;;
72160;Laerm;60045;51.792;10.938;2023-07-09T14:02:07;59.13;38.49;71.24;;
72160;Laerm;60045;51.792;10.938;2023-07-09T14:04:42;61.41;39.32;76.15;;